sensor_id;sensor_type;location;lat;lon;timestamp;temperature;humidity
73277;DHT22;61501;43.316;5.372;2023-04-30T00:01:02;17.90;99.90
73277;DHT22;61501;43.316;5.372;2023-04-30T00:03:28;17.90;99.90
73277;DHT22;61501;43.316;5.372;2023-04-30T00:05:54;17.90;99.90
73277;DHT22;61501;43.316;5.372;2023-04-30T00:08:19;17.90;99.90
73277;DHT22;61501;43.316;5.372;2023-04-30T00:10:45;18.00;99.90
73277;DHT22;61501;43.316;5.372;2023-04-30T00:13:11;18.00;99.90
73277;DHT22;61501;43.316;5.372;2023-04-30T00:15:38;18.00;99.90
73277;DHT22;61501;43.316;5.372;2023-04-30T00:18:04;18.00;99.90
73277;DHT22;61501;43.316;5.372;2023-04-30T00:20:31;17.90;99.90
73277;DHT22;61501;43.316;5.372;2023-04-30T00:22:57;18.00;99.90
73277;DHT22;61501;43.316;5.372;2023-04-30T00:25:22;18.00;99.90
73277;DHT22;61501;43.316;5.372;2023-04-30T00:27:49;18.00;99.90
73277;DHT22;61501;43.316;5.372;2023-04-30T00:30:15;18.00;99.90
73277;DHT22;61501;43.316;5.372;2023-04-30T00:32:40;18.10;99.90
73277;DHT22;61501;43.316;5.372;2023-04-30T00:35:06;18.10;99.90
73277;DHT22;61501;43.316;5.372;2023-04-30T00:37:32;18.00;99.90
73277;DHT22;61501;43.316;5.372;2023-04-30T00:39:58;18.00;99.90
73277;DHT22;61501;43.316;5.372;2023-04-30T00:42:23;18.00;99.90
73277;DHT22;61501;43.316;5.372;2023-04-30T00:44:49;18.00;99.90
73277;DHT22;61501;43.316;5.372;2023-04-30T00:47:15;17.90;99.90
73277;DHT22;61501;43.316;5.372;2023-04-30T00:49:40;17.80;99.90
73277;DHT22;61501;43.316;5.372;2023-04-30T00:52:06;17.80;99.90
73277;DHT22;61501;43.316;5.372;2023-04-30T00:54:32;17.70;99.90
73277;DHT22;61501;43.316;5.372;2023-04-30T00:56:58;17.70;99.90
73277;DHT22;61501;43.316;5.372;2023-04-30T00:59:23;17.50;99.90
73277;DHT22;61501;43.316;5.372;2023-04-30T01:01:49;17.50;99.90
73277;DHT22;61501;43.316;5.372;2023-04-30T01:04:15;17.40;99.90
73277;DHT22;61501;43.316;5.372;2023-04-30T01:06:41;17.50;99.90
73277;DHT22;61501;43.316;5.372;2023-04-30T01:09:07;17.50;99.90
73277;DHT22;61501;43.316;5.372;2023-04-30T01:11:45;17.50;99.90
73277;DHT22;61501;43.316;5.372;2023-04-30T01:14:29;17.50;99.90
73277;DHT22;61501;43.316;5.372;2023-04-30T01:17:05;17.60;99.90
73277;DHT22;61501;43.316;5.372;2023-04-30T01:19:42;17.50;99.90
73277;DHT22;61501;43.316;5.372;2023-04-30T01:22:13;17.50;99.90
73277;DHT22;61501;43.316;5.372;2023-04-30T01:30:22;17.40;99.90
73277;DHT22;61501;43.316;5.372;2023-04-30T01:32:48;17.50;99.90
73277;DHT22;61501;43.316;5.372;2023-04-30T01:35:14;17.40;99.90
73277;DHT22;61501;43.316;5.372;2023-04-30T01:40:36;17.40;99.90
73277;DHT22;61501;43.316;5.372;2023-04-30T01:43:09;17.50;99.90
73277;DHT22;61501;43.316;5.372;2023-04-30T01:51:44;17.40;99.90
73277;DHT22;61501;43.316;5.372;2023-04-30T01:56:45;17.40;99.90
73277;DHT22;61501;43.316;5.372;2023-04-30T01:59:13;17.40;99.90
73277;DHT22;61501;43.316;5.372;2023-04-30T02:01:40;17.40;99.90
73277;DHT22;61501;43.316;5.372;2023-04-30T02:04:06;17.40;99.90
73277;DHT22;61501;43.316;5.372;2023-04-30T02:06:31;17.40;99.90
73277;DHT22;61501;43.316;5.372;2023-04-30T02:08:57;17.40;99.90
73277;DHT22;61501;43.316;5.372;2023-04-30T02:11:28;17.30;99.90
73277;DHT22;61501;43.316;5.372;2023-04-30T02:13:54;17.30;99.90
73277;DHT22;61501;43.316;5.372;2023-04-30T02:16:19;17.40;99.90
73277;DHT22;61501;43.316;5.372;2023-04-30T02:18:45;17.40;99.90
73277;DHT22;61501;43.316;5.372;2023-04-30T02:21:11;17.40;99.90
73277;DHT22;61501;43.316;5.372;2023-04-30T02:23:36;17.40;99.90
73277;DHT22;61501;43.316;5.372;2023-04-30T02:26:02;17.40;99.90
73277;DHT22;61501;43.316;5.372;2023-04-30T02:28:28;17.50;99.90
73277;DHT22;61501;43.316;5.372;2023-04-30T02:30:53;17.50;99.90
73277;DHT22;61501;43.316;5.372;2023-04-30T02:33:19;17.40;99.90
73277;DHT22;61501;43.316;5.372;2023-04-30T02:35:44;17.40;99.90
73277;DHT22;61501;43.316;5.372;2023-04-30T02:38:10;17.50;99.90
73277;DHT22;61501;43.316;5.372;2023-04-30T02:40:36;17.50;99.90
73277;DHT22;61501;43.316;5.372;2023-04-30T02:43:02;17.50;99.90
73277;DHT22;61501;43.316;5.372;2023-04-30T02:45:27;17.50;99.90
73277;DHT22;61501;43.316;5.372;2023-04-30T02:47:53;17.50;99.90
73277;DHT22;61501;43.316;5.372;2023-04-30T02:50:18;17.40;99.90
73277;DHT22;61501;43.316;5.372;2023-04-30T02:52:45;17.30;99.90
73277;DHT22;61501;43.316;5.372;2023-04-30T02:55:14;17.30;99.90
73277;DHT22;61501;43.316;5.372;2023-04-30T02:57:39;17.20;99.90
73277;DHT22;61501;43.316;5.372;2023-04-30T03:00:05;17.20;99.90
73277;DHT22;61501;43.316;5.372;2023-04-30T03:02:31;17.20;99.90
73277;DHT22;61501;43.316;5.372;2023-04-30T03:04:57;17.30;99.90
73277;DHT22;61501;43.316;5.372;2023-04-30T03:07:23;17.30;99.90
73277;DHT22;61501;43.316;5.372;2023-04-30T03:09:48;17.20;99.90
73277;DHT22;61501;43.316;5.372;2023-04-30T03:12:14;17.20;99.90
73277;DHT22;61501;43.316;5.372;2023-04-30T03:14:40;17.20;99.90
73277;DHT22;61501;43.316;5.372;2023-04-30T03:17:06;17.20;99.90
73277;DHT22;61501;43.316;5.372;2023-04-30T03:19:31;17.20;99.90
73277;DHT22;61501;43.316;5.372;2023-04-30T03:21:57;17.10;99.90
73277;DHT22;61501;43.316;5.372;2023-04-30T03:24:23;17.10;99.90
73277;DHT22;61501;43.316;5.372;2023-04-30T03:26:49;17.10;99.90
73277;DHT22;61501;43.316;5.372;2023-04-30T03:29:16;17.10;99.90
73277;DHT22;61501;43.316;5.372;2023-04-30T03:31:41;17.10;99.90
73277;DHT22;61501;43.316;5.372;2023-04-30T03:34:07;17.10;99.90
73277;DHT22;61501;43.316;5.372;2023-04-30T03:36:33;17.00;99.90
73277;DHT22;61501;43.316;5.372;2023-04-30T03:38:59;17.00;99.90
73277;DHT22;61501;43.316;5.372;2023-04-30T03:41:25;16.90;99.90
73277;DHT22;61501;43.316;5.372;2023-04-30T03:43:51;16.90;99.90
73277;DHT22;61501;43.316;5.372;2023-04-30T03:46:17;16.80;99.90
73277;DHT22;61501;43.316;5.372;2023-04-30T03:48:42;16.80;99.90
73277;DHT22;61501;43.316;5.372;2023-04-30T03:51:09;16.90;99.90
73277;DHT22;61501;43.316;5.372;2023-04-30T03:53:35;16.80;99.90
73277;DHT22;61501;43.316;5.372;2023-04-30T03:56:01;16.80;99.90
73277;DHT22;61501;43.316;5.372;2023-04-30T03:58:27;16.80;99.90
73277;DHT22;61501;43.316;5.372;2023-04-30T04:00:52;16.90;99.90
73277;DHT22;61501;43.316;5.372;2023-04-30T04:03:18;16.90;99.90
73277;DHT22;61501;43.316;5.372;2023-04-30T04:05:44;16.90;99.90
73277;DHT22;61501;43.316;5.372;2023-04-30T04:08:11;16.90;99.90
73277;DHT22;61501;43.316;5.372;2023-04-30T04:10:37;16.90;99.90
73277;DHT22;61501;43.316;5.372;2023-04-30T04:13:03;16.90;99.90
73277;DHT22;61501;43.316;5.372;2023-04-30T04:15:29;16.90;99.90
73277;DHT22;61501;43.316;5.372;2023-04-30T04:17:54;17.00;99.90
73277;DHT22;61501;43.316;5.372;2023-04-30T04:20:20;16.90;99.90
73277;DHT22;61501;43.316;5.372;2023-04-30T04:22:46;17.00;99.90
73277;DHT22;61501;43.316;5.372;2023-04-30T04:25:11;17.00;99.90
73277;DHT22;61501;43.316;5.372;2023-04-30T04:27:38;17.00;99.90
73277;DHT22;61501;43.316;5.372;2023-04-30T04:30:04;17.00;99.90
73277;DHT22;61501;43.316;5.372;2023-04-30T04:32:30;17.00;99.90
73277;DHT22;61501;43.316;5.372;2023-04-30T04:34:57;17.10;99.90
73277;DHT22;61501;43.316;5.372;2023-04-30T04:37:23;17.10;99.90
73277;DHT22;61501;43.316;5.372;2023-04-30T04:39:48;17.10;99.90
73277;DHT22;61501;43.316;5.372;2023-04-30T04:42:15;17.10;99.90
73277;DHT22;61501;43.316;5.372;2023-04-30T04:44:44;17.10;99.90
73277;DHT22;61501;43.316;5.372;2023-04-30T04:47:10;17.00;99.90
73277;DHT22;61501;43.316;5.372;2023-04-30T04:49:37;17.00;99.90
73277;DHT22;61501;43.316;5.372;2023-04-30T04:52:03;17.00;99.90
73277;DHT22;61501;43.316;5.372;2023-04-30T04:54:29;17.00;99.90
73277;DHT22;61501;43.316;5.372;2023-04-30T04:56:55;17.00;99.90
73277;DHT22;61501;43.316;5.372;2023-04-30T04:59:21;17.10;99.90
73277;DHT22;61501;43.316;5.372;2023-04-30T05:01:47;17.10;99.90
73277;DHT22;61501;43.316;5.372;2023-04-30T05:04:12;17.10;99.90
73277;DHT22;61501;43.316;5.372;2023-04-30T05:06:38;17.10;99.90
73277;DHT22;61501;43.316;5.372;2023-04-30T05:09:04;17.20;99.90
73277;DHT22;61501;43.316;5.372;2023-04-30T05:11:33;17.20;99.90
73277;DHT22;61501;43.316;5.372;2023-04-30T05:13:58;17.20;99.90
73277;DHT22;61501;43.316;5.372;2023-04-30T05:16:24;17.20;99.90
73277;DHT22;61501;43.316;5.372;2023-04-30T05:18:51;17.20;99.90
73277;DHT22;61501;43.316;5.372;2023-04-30T05:21:16;17.20;99.90
73277;DHT22;61501;43.316;5.372;2023-04-30T05:23:43;17.20;99.90
73277;DHT22;61501;43.316;5.372;2023-04-30T05:26:08;17.20;99.90
73277;DHT22;61501;43.316;5.372;2023-04-30T05:28:34;17.20;99.90
73277;DHT22;61501;43.316;5.372;2023-04-30T05:31:00;17.30;99.90
73277;DHT22;61501;43.316;5.372;2023-04-30T05:33:25;17.20;99.90
73277;DHT22;61501;43.316;5.372;2023-04-30T05:35:51;17.20;99.90
73277;DHT22;61501;43.316;5.372;2023-04-30T05:38:17;17.30;99.90
73277;DHT22;61501;43.316;5.372;2023-04-30T05:40:42;17.20;99.90
73277;DHT22;61501;43.316;5.372;2023-04-30T05:43:08;17.20;99.90
73277;DHT22;61501;43.316;5.372;2023-04-30T05:45:34;17.20;99.90
73277;DHT22;61501;43.316;5.372;2023-04-30T05:48:00;17.20;99.90
73277;DHT22;61501;43.316;5.372;2023-04-30T05:50:26;17.20;99.90
73277;DHT22;61501;43.316;5.372;2023-04-30T05:52:51;17.20;99.90
73277;DHT22;61501;43.316;5.372;2023-04-30T05:55:17;17.20;99.90
73277;DHT22;61501;43.316;5.372;2023-04-30T05:57:43;17.20;99.90
73277;DHT22;61501;43.316;5.372;2023-04-30T06:00:08;17.20;99.90
73277;DHT22;61501;43.316;5.372;2023-04-30T06:02:34;17.30;99.90
73277;DHT22;61501;43.316;5.372;2023-04-30T06:05:00;17.30;99.90
73277;DHT22;61501;43.316;5.372;2023-04-30T06:07:27;17.30;99.90
73277;DHT22;61501;43.316;5.372;2023-04-30T06:09:53;17.30;99.90
73277;DHT22;61501;43.316;5.372;2023-04-30T06:12:18;17.30;99.90
73277;DHT22;61501;43.316;5.372;2023-04-30T06:14:44;17.40;99.90
73277;DHT22;61501;43.316;5.372;2023-04-30T06:17:11;17.40;99.90
73277;DHT22;61501;43.316;5.372;2023-04-30T06:19:37;17.60;99.90
73277;DHT22;61501;43.316;5.372;2023-04-30T06:22:03;17.50;99.90
73277;DHT22;61501;43.316;5.372;2023-04-30T06:24:29;17.70;99.90
73277;DHT22;61501;43.316;5.372;2023-04-30T06:26:55;17.70;99.90
73277;DHT22;61501;43.316;5.372;2023-04-30T06:29:21;17.80;99.90
73277;DHT22;61501;43.316;5.372;2023-04-30T06:31:49;17.70;99.90
73277;DHT22;61501;43.316;5.372;2023-04-30T06:34:15;17.90;99.90
73277;DHT22;61501;43.316;5.372;2023-04-30T06:36:41;17.90;99.90
73277;DHT22;61501;43.316;5.372;2023-04-30T06:39:06;18.00;99.90
73277;DHT22;61501;43.316;5.372;2023-04-30T06:41:32;17.90;99.90
73277;DHT22;61501;43.316;5.372;2023-04-30T06:43:57;17.90;99.90
73277;DHT22;61501;43.316;5.372;2023-04-30T06:46:23;17.90;99.90
73277;DHT22;61501;43.316;5.372;2023-04-30T06:48:49;18.00;99.90
73277;DHT22;61501;43.316;5.372;2023-04-30T06:51:14;18.00;99.90
73277;DHT22;61501;43.316;5.372;2023-04-30T06:53:40;17.90;99.90
73277;DHT22;61501;43.316;5.372;2023-04-30T06:56:06;17.90;99.90
73277;DHT22;61501;43.316;5.372;2023-04-30T06:58:31;17.80;99.90
73277;DHT22;61501;43.316;5.372;2023-04-30T07:00:57;17.80;99.90
73277;DHT22;61501;43.316;5.372;2023-04-30T07:03:23;17.80;99.90
73277;DHT22;61501;43.316;5.372;2023-04-30T07:05:48;17.70;99.90
73277;DHT22;61501;43.316;5.372;2023-04-30T07:08:16;17.60;99.90
73277;DHT22;61501;43.316;5.372;2023-04-30T07:10:41;17.40;99.90
73277;DHT22;61501;43.316;5.372;2023-04-30T07:13:07;17.40;99.90
73277;DHT22;61501;43.316;5.372;2023-04-30T07:15:33;17.50;99.90
73277;DHT22;61501;43.316;5.372;2023-04-30T07:17:59;17.50;99.90
73277;DHT22;61501;43.316;5.372;2023-04-30T07:20:24;17.50;99.90
73277;DHT22;61501;43.316;5.372;2023-04-30T07:22:50;17.60;99.90
73277;DHT22;61501;43.316;5.372;2023-04-30T07:25:16;17.60;99.90
73277;DHT22;61501;43.316;5.372;2023-04-30T07:27:42;17.60;99.90
73277;DHT22;61501;43.316;5.372;2023-04-30T07:30:08;17.50;99.90
73277;DHT22;61501;43.316;5.372;2023-04-30T07:32:35;17.40;99.90
73277;DHT22;61501;43.316;5.372;2023-04-30T07:35:01;17.40;99.90
73277;DHT22;61501;43.316;5.372;2023-04-30T07:37:27;17.40;99.90
73277;DHT22;61501;43.316;5.372;2023-04-30T07:39:53;17.40;99.90
73277;DHT22;61501;43.316;5.372;2023-04-30T07:42:19;17.40;99.90
73277;DHT22;61501;43.316;5.372;2023-04-30T07:44:44;17.40;99.90
73277;DHT22;61501;43.316;5.372;2023-04-30T07:47:10;17.40;99.90
73277;DHT22;61501;43.316;5.372;2023-04-30T07:49:36;17.40;99.90
73277;DHT22;61501;43.316;5.372;2023-04-30T07:52:02;17.40;99.90
73277;DHT22;61501;43.316;5.372;2023-04-30T07:54:28;17.40;99.90
73277;DHT22;61501;43.316;5.372;2023-04-30T07:56:53;17.30;99.90
73277;DHT22;61501;43.316;5.372;2023-04-30T07:59:19;17.30;99.90
73277;DHT22;61501;43.316;5.372;2023-04-30T08:01:52;17.30;99.90
73277;DHT22;61501;43.316;5.372;2023-04-30T08:04:17;17.30;99.90
73277;DHT22;61501;43.316;5.372;2023-04-30T08:06:43;17.30;99.90
73277;DHT22;61501;43.316;5.372;2023-04-30T08:09:09;17.50;99.90
73277;DHT22;61501;43.316;5.372;2023-04-30T08:11:34;17.60;99.90
73277;DHT22;61501;43.316;5.372;2023-04-30T08:14:00;17.70;99.90
73277;DHT22;61501;43.316;5.372;2023-04-30T08:16:26;17.90;99.90
73277;DHT22;61501;43.316;5.372;2023-04-30T08:18:52;17.90;99.90
73277;DHT22;61501;43.316;5.372;2023-04-30T08:21:18;17.90;99.90
73277;DHT22;61501;43.316;5.372;2023-04-30T08:23:44;17.90;99.90
73277;DHT22;61501;43.316;5.372;2023-04-30T08:26:10;17.80;99.90
73277;DHT22;61501;43.316;5.372;2023-04-30T08:28:36;17.70;99.90
73277;DHT22;61501;43.316;5.372;2023-04-30T08:31:01;17.50;99.90
73277;DHT22;61501;43.316;5.372;2023-04-30T08:33:27;17.40;99.90
73277;DHT22;61501;43.316;5.372;2023-04-30T08:35:53;17.40;99.90
73277;DHT22;61501;43.316;5.372;2023-04-30T08:38:19;17.30;99.90
73277;DHT22;61501;43.316;5.372;2023-04-30T08:43:29;17.20;99.90
73277;DHT22;61501;43.316;5.372;2023-04-30T08:45:55;17.20;99.90
73277;DHT22;61501;43.316;5.372;2023-04-30T08:48:22;17.20;99.90
73277;DHT22;61501;43.316;5.372;2023-04-30T08:50:49;17.20;99.90
73277;DHT22;61501;43.316;5.372;2023-04-30T08:53:15;17.20;99.90
73277;DHT22;61501;43.316;5.372;2023-04-30T08:55:42;17.30;99.90
73277;DHT22;61501;43.316;5.372;2023-04-30T08:58:08;17.40;99.90
73277;DHT22;61501;43.316;5.372;2023-04-30T09:00:37;17.40;99.90
73277;DHT22;61501;43.316;5.372;2023-04-30T09:03:03;17.50;99.90
73277;DHT22;61501;43.316;5.372;2023-04-30T09:05:29;17.50;99.90
73277;DHT22;61501;43.316;5.372;2023-04-30T09:07:55;17.50;99.90
73277;DHT22;61501;43.316;5.372;2023-04-30T09:10:21;17.60;99.90
73277;DHT22;61501;43.316;5.372;2023-04-30T09:13:04;17.60;99.90
73277;DHT22;61501;43.316;5.372;2023-04-30T09:15:31;17.80;99.90
73277;DHT22;61501;43.316;5.372;2023-04-30T09:18:16;17.80;99.90
73277;DHT22;61501;43.316;5.372;2023-04-30T09:21:01;17.80;99.90
73277;DHT22;61501;43.316;5.372;2023-04-30T09:23:28;17.80;99.90
73277;DHT22;61501;43.316;5.372;2023-04-30T09:25:54;17.70;99.90
73277;DHT22;61501;43.316;5.372;2023-04-30T09:28:21;17.70;99.90
73277;DHT22;61501;43.316;5.372;2023-04-30T09:30:52;17.60;99.90
73277;DHT22;61501;43.316;5.372;2023-04-30T09:33:18;17.70;99.90
73277;DHT22;61501;43.316;5.372;2023-04-30T09:35:43;17.60;99.90
73277;DHT22;61501;43.316;5.372;2023-04-30T09:40:54;17.80;99.90
73277;DHT22;61501;43.316;5.372;2023-04-30T09:43:20;17.70;99.90
73277;DHT22;61501;43.316;5.372;2023-04-30T09:45:47;17.70;99.90
73277;DHT22;61501;43.316;5.372;2023-04-30T09:48:21;17.80;99.90
73277;DHT22;61501;43.316;5.372;2023-04-30T09:50:48;17.90;99.90
73277;DHT22;61501;43.316;5.372;2023-04-30T09:53:14;17.80;99.90
73277;DHT22;61501;43.316;5.372;2023-04-30T09:55:43;17.80;99.90
73277;DHT22;61501;43.316;5.372;2023-04-30T09:58:10;17.80;99.90
73277;DHT22;61501;43.316;5.372;2023-04-30T10:00:37;17.80;99.90
73277;DHT22;61501;43.316;5.372;2023-04-30T10:03:08;18.10;99.90
73277;DHT22;61501;43.316;5.372;2023-04-30T10:05:40;18.20;99.90
73277;DHT22;61501;43.316;5.372;2023-04-30T10:08:12;18.30;99.90
73277;DHT22;61501;43.316;5.372;2023-04-30T10:10:40;18.40;99.90
73277;DHT22;61501;43.316;5.372;2023-04-30T10:13:12;18.50;99.90
73277;DHT22;61501;43.316;5.372;2023-04-30T10:15:47;18.30;99.90
73277;DHT22;61501;43.316;5.372;2023-04-30T10:18:19;18.20;99.90
73277;DHT22;61501;43.316;5.372;2023-04-30T10:20:47;18.20;99.90
73277;DHT22;61501;43.316;5.372;2023-04-30T10:23:15;18.20;99.90
73277;DHT22;61501;43.316;5.372;2023-04-30T10:25:42;18.30;99.90
73277;DHT22;61501;43.316;5.372;2023-04-30T10:28:09;18.20;99.90
73277;DHT22;61501;43.316;5.372;2023-04-30T10:30:35;18.10;99.90
73277;DHT22;61501;43.316;5.372;2023-04-30T10:35:56;18.10;99.90
73277;DHT22;61501;43.316;5.372;2023-04-30T10:38:23;18.40;99.90
73277;DHT22;61501;43.316;5.372;2023-04-30T10:40:53;18.70;99.90
73277;DHT22;61501;43.316;5.372;2023-04-30T10:43:19;18.70;99.90
73277;DHT22;61501;43.316;5.372;2023-04-30T10:45:46;18.90;99.90
73277;DHT22;61501;43.316;5.372;2023-04-30T10:48:14;19.10;99.90
73277;DHT22;61501;43.316;5.372;2023-04-30T10:50:41;19.20;99.90
73277;DHT22;61501;43.316;5.372;2023-04-30T10:53:07;19.40;99.90
73277;DHT22;61501;43.316;5.372;2023-04-30T10:55:53;19.40;99.90
73277;DHT22;61501;43.316;5.372;2023-04-30T10:58:26;19.70;99.90
73277;DHT22;61501;43.316;5.372;2023-04-30T11:01:17;19.90;99.90
73277;DHT22;61501;43.316;5.372;2023-04-30T11:04:06;20.10;99.90
73277;DHT22;61501;43.316;5.372;2023-04-30T11:09:16;20.80;99.90
73277;DHT22;61501;43.316;5.372;2023-04-30T11:11:45;20.80;99.90
73277;DHT22;61501;43.316;5.372;2023-04-30T11:14:13;20.80;99.90
73277;DHT22;61501;43.316;5.372;2023-04-30T11:16:48;21.00;99.90
73277;DHT22;61501;43.316;5.372;2023-04-30T11:19:14;21.10;99.90
73277;DHT22;61501;43.316;5.372;2023-04-30T11:21:41;21.50;99.90
73277;DHT22;61501;43.316;5.372;2023-04-30T11:24:07;21.00;99.90
73277;DHT22;61501;43.316;5.372;2023-04-30T11:27:07;20.90;99.90
73277;DHT22;61501;43.316;5.372;2023-04-30T11:29:33;20.60;99.90
73277;DHT22;61501;43.316;5.372;2023-04-30T11:32:03;20.40;99.90
73277;DHT22;61501;43.316;5.372;2023-04-30T11:34:30;20.50;99.90
73277;DHT22;61501;43.316;5.372;2023-04-30T11:36:58;20.80;99.90
73277;DHT22;61501;43.316;5.372;2023-04-30T11:39:27;20.90;99.90
73277;DHT22;61501;43.316;5.372;2023-04-30T11:41:54;20.90;99.90
73277;DHT22;61501;43.316;5.372;2023-04-30T11:44:26;21.10;99.90
73277;DHT22;61501;43.316;5.372;2023-04-30T11:46:52;21.20;99.90
73277;DHT22;61501;43.316;5.372;2023-04-30T11:49:21;21.40;99.90
73277;DHT22;61501;43.316;5.372;2023-04-30T11:51:49;21.60;99.90
73277;DHT22;61501;43.316;5.372;2023-04-30T11:54:16;21.80;99.90
73277;DHT22;61501;43.316;5.372;2023-04-30T11:56:46;21.50;99.90
73277;DHT22;61501;43.316;5.372;2023-04-30T11:59:16;21.40;99.90
73277;DHT22;61501;43.316;5.372;2023-04-30T12:01:42;21.60;99.90
73277;DHT22;61501;43.316;5.372;2023-04-30T12:04:08;21.80;99.90
73277;DHT22;61501;43.316;5.372;2023-04-30T12:06:34;21.30;99.90
73277;DHT22;61501;43.316;5.372;2023-04-30T12:09:02;21.40;99.90
73277;DHT22;61501;43.316;5.372;2023-04-30T12:11:33;21.50;99.90
73277;DHT22;61501;43.316;5.372;2023-04-30T12:14:03;21.40;99.90
73277;DHT22;61501;43.316;5.372;2023-04-30T12:19:04;21.50;99.90
73277;DHT22;61501;43.316;5.372;2023-04-30T12:21:30;21.20;99.90
73277;DHT22;61501;43.316;5.372;2023-04-30T12:23:56;20.80;99.90
73277;DHT22;61501;43.316;5.372;2023-04-30T12:26:21;20.50;99.90
73277;DHT22;61501;43.316;5.372;2023-04-30T12:28:48;20.50;99.90
73277;DHT22;61501;43.316;5.372;2023-04-30T12:31:16;20.60;99.90
73277;DHT22;61501;43.316;5.372;2023-04-30T12:33:42;20.50;99.90
73277;DHT22;61501;43.316;5.372;2023-04-30T12:36:12;20.40;99.90
73277;DHT22;61501;43.316;5.372;2023-04-30T12:38:42;20.60;99.90
73277;DHT22;61501;43.316;5.372;2023-04-30T12:41:10;20.50;99.90
73277;DHT22;61501;43.316;5.372;2023-04-30T12:43:39;20.50;99.90
73277;DHT22;61501;43.316;5.372;2023-04-30T12:46:05;21.10;99.90
73277;DHT22;61501;43.316;5.372;2023-04-30T12:48:43;22.20;99.90
73277;DHT22;61501;43.316;5.372;2023-04-30T12:51:10;22.90;99.90
73277;DHT22;61501;43.316;5.372;2023-04-30T12:53:44;23.50;99.90
73277;DHT22;61501;43.316;5.372;2023-04-30T12:56:15;23.20;99.90
73277;DHT22;61501;43.316;5.372;2023-04-30T12:58:41;22.50;99.90
73277;DHT22;61501;43.316;5.372;2023-04-30T13:01:16;21.90;99.90
73277;DHT22;61501;43.316;5.372;2023-04-30T13:03:42;21.90;99.90
73277;DHT22;61501;43.316;5.372;2023-04-30T13:06:08;23.30;99.90
73277;DHT22;61501;43.316;5.372;2023-04-30T13:08:34;23.90;99.90
73277;DHT22;61501;43.316;5.372;2023-04-30T13:11:00;24.20;99.90
73277;DHT22;61501;43.316;5.372;2023-04-30T13:13:26;25.40;99.90
73277;DHT22;61501;43.316;5.372;2023-04-30T13:15:51;24.50;99.90
73277;DHT22;61501;43.316;5.372;2023-04-30T13:18:17;24.40;99.90
73277;DHT22;61501;43.316;5.372;2023-04-30T13:20:43;23.80;99.90
73277;DHT22;61501;43.316;5.372;2023-04-30T13:23:09;23.30;99.90
73277;DHT22;61501;43.316;5.372;2023-04-30T13:25:37;23.10;99.90
73277;DHT22;61501;43.316;5.372;2023-04-30T13:28:03;24.80;99.90
73277;DHT22;61501;43.316;5.372;2023-04-30T13:30:28;24.70;99.90
73277;DHT22;61501;43.316;5.372;2023-04-30T13:32:54;23.80;99.90
73277;DHT22;61501;43.316;5.372;2023-04-30T13:35:20;22.70;99.90
73277;DHT22;61501;43.316;5.372;2023-04-30T13:37:45;22.00;99.90
73277;DHT22;61501;43.316;5.372;2023-04-30T13:40:17;22.60;99.90
73277;DHT22;61501;43.316;5.372;2023-04-30T13:42:44;23.50;99.90
73277;DHT22;61501;43.316;5.372;2023-04-30T13:45:10;22.90;99.90
73277;DHT22;61501;43.316;5.372;2023-04-30T13:47:36;23.70;99.90
73277;DHT22;61501;43.316;5.372;2023-04-30T13:50:04;23.80;99.90
73277;DHT22;61501;43.316;5.372;2023-04-30T13:52:30;25.00;99.90
73277;DHT22;61501;43.316;5.372;2023-04-30T13:54:55;26.10;99.60
73277;DHT22;61501;43.316;5.372;2023-04-30T13:57:22;24.90;99.90
73277;DHT22;61501;43.316;5.372;2023-04-30T13:59:48;24.10;99.90
73277;DHT22;61501;43.316;5.372;2023-04-30T14:02:13;24.90;99.90
73277;DHT22;61501;43.316;5.372;2023-04-30T14:04:39;24.60;99.90
73277;DHT22;61501;43.316;5.372;2023-04-30T14:07:04;24.10;99.90
73277;DHT22;61501;43.316;5.372;2023-04-30T14:09:30;23.50;99.90
73277;DHT22;61501;43.316;5.372;2023-04-30T14:11:56;23.40;99.90
73277;DHT22;61501;43.316;5.372;2023-04-30T14:14:24;23.50;99.90
73277;DHT22;61501;43.316;5.372;2023-04-30T14:16:50;23.90;99.90
73277;DHT22;61501;43.316;5.372;2023-04-30T14:19:16;23.60;99.90
73277;DHT22;61501;43.316;5.372;2023-04-30T14:21:41;23.60;99.90
73277;DHT22;61501;43.316;5.372;2023-04-30T14:24:08;23.60;99.90
73277;DHT22;61501;43.316;5.372;2023-04-30T14:26:34;23.80;99.90
73277;DHT22;61501;43.316;5.372;2023-04-30T14:29:00;23.40;99.90
73277;DHT22;61501;43.316;5.372;2023-04-30T14:31:26;23.80;99.90
73277;DHT22;61501;43.316;5.372;2023-04-30T14:33:51;24.70;99.90
73277;DHT22;61501;43.316;5.372;2023-04-30T14:36:17;25.60;98.00
73277;DHT22;61501;43.316;5.372;2023-04-30T14:38:43;26.60;94.60
73277;DHT22;61501;43.316;5.372;2023-04-30T14:41:09;27.20;90.00
73277;DHT22;61501;43.316;5.372;2023-04-30T14:43:35;26.90;87.90
73277;DHT22;61501;43.316;5.372;2023-04-30T14:46:01;26.50;83.30
73277;DHT22;61501;43.316;5.372;2023-04-30T14:48:27;26.40;91.80
73277;DHT22;61501;43.316;5.372;2023-04-30T14:50:53;25.90;93.80
73277;DHT22;61501;43.316;5.372;2023-04-30T14:53:19;24.60;98.20
73277;DHT22;61501;43.316;5.372;2023-04-30T14:55:44;24.30;99.90
73277;DHT22;61501;43.316;5.372;2023-04-30T14:58:10;24.20;99.90
73277;DHT22;61501;43.316;5.372;2023-04-30T15:00:36;24.40;99.90
73277;DHT22;61501;43.316;5.372;2023-04-30T15:03:02;24.60;99.90
73277;DHT22;61501;43.316;5.372;2023-04-30T15:05:28;23.10;99.90
73277;DHT22;61501;43.316;5.372;2023-04-30T15:07:53;23.00;99.90
73277;DHT22;61501;43.316;5.372;2023-04-30T15:10:19;23.10;99.90
73277;DHT22;61501;43.316;5.372;2023-04-30T15:12:45;22.80;99.90
73277;DHT22;61501;43.316;5.372;2023-04-30T15:15:11;22.20;99.90
73277;DHT22;61501;43.316;5.372;2023-04-30T15:17:37;22.60;99.90
73277;DHT22;61501;43.316;5.372;2023-04-30T15:20:04;23.20;99.90
73277;DHT22;61501;43.316;5.372;2023-04-30T15:22:29;23.50;99.90
73277;DHT22;61501;43.316;5.372;2023-04-30T15:24:55;23.90;99.90
73277;DHT22;61501;43.316;5.372;2023-04-30T15:27:22;23.90;99.90
73277;DHT22;61501;43.316;5.372;2023-04-30T15:29:47;23.70;99.90
73277;DHT22;61501;43.316;5.372;2023-04-30T15:32:13;23.80;99.90
73277;DHT22;61501;43.316;5.372;2023-04-30T15:34:39;23.50;99.90
73277;DHT22;61501;43.316;5.372;2023-04-30T15:37:06;23.30;99.90
73277;DHT22;61501;43.316;5.372;2023-04-30T15:39:32;23.10;99.90
73277;DHT22;61501;43.316;5.372;2023-04-30T15:41:59;23.10;99.90
73277;DHT22;61501;43.316;5.372;2023-04-30T15:44:26;22.80;99.90
73277;DHT22;61501;43.316;5.372;2023-04-30T15:46:51;22.70;99.90
73277;DHT22;61501;43.316;5.372;2023-04-30T15:49:17;22.70;99.90
73277;DHT22;61501;43.316;5.372;2023-04-30T15:51:43;22.60;99.90
73277;DHT22;61501;43.316;5.372;2023-04-30T15:54:10;22.80;99.90
73277;DHT22;61501;43.316;5.372;2023-04-30T15:56:38;23.20;99.90
73277;DHT22;61501;43.316;5.372;2023-04-30T15:59:04;23.10;99.90